sensor_id;sensor_type;location;lat;lon;timestamp;temperature;humidity
12166;DHT22;6146;48.128;11.476;2024-01-15T00:02:16;0.10;99.90
12166;DHT22;6146;48.128;11.476;2024-01-15T00:04:42;0.10;99.90
12166;DHT22;6146;48.128;11.476;2024-01-15T00:07:08;0.10;99.90
12166;DHT22;6146;48.128;11.476;2024-01-15T00:09:34;0.20;99.90
12166;DHT22;6146;48.128;11.476;2024-01-15T00:12:00;0.20;99.90
12166;DHT22;6146;48.128;11.476;2024-01-15T00:14:26;1.30;99.90
12166;DHT22;6146;48.128;11.476;2024-01-15T00:16:52;0.20;99.90
12166;DHT22;6146;48.128;11.476;2024-01-15T00:19:23;0.20;99.90
12166;DHT22;6146;48.128;11.476;2024-01-15T00:21:49;0.20;99.90
12166;DHT22;6146;48.128;11.476;2024-01-15T00:24:15;0.20;99.90
12166;DHT22;6146;48.128;11.476;2024-01-15T00:26:41;0.20;99.90
12166;DHT22;6146;48.128;11.476;2024-01-15T00:29:07;0.10;99.90
12166;DHT22;6146;48.128;11.476;2024-01-15T00:31:33;0.10;99.90
12166;DHT22;6146;48.128;11.476;2024-01-15T00:33:59;0.10;99.90
12166;DHT22;6146;48.128;11.476;2024-01-15T00:36:24;0.20;99.90
12166;DHT22;6146;48.128;11.476;2024-01-15T00:38:50;0.20;99.90
12166;DHT22;6146;48.128;11.476;2024-01-15T00:41:16;0.20;99.90
12166;DHT22;6146;48.128;11.476;2024-01-15T00:43:42;0.20;99.90
12166;DHT22;6146;48.128;11.476;2024-01-15T00:46:08;0.10;99.90
12166;DHT22;6146;48.128;11.476;2024-01-15T00:48:33;0.10;99.90
12166;DHT22;6146;48.128;11.476;2024-01-15T00:50:59;0.10;99.90
12166;DHT22;6146;48.128;11.476;2024-01-15T00:53:25;-1.30;99.90
12166;DHT22;6146;48.128;11.476;2024-01-15T00:55:51;0.20;99.90
12166;DHT22;6146;48.128;11.476;2024-01-15T00:58:16;0.30;99.90
12166;DHT22;6146;48.128;11.476;2024-01-15T01:00:42;0.30;99.90
12166;DHT22;6146;48.128;11.476;2024-01-15T01:03:08;0.30;99.90
12166;DHT22;6146;48.128;11.476;2024-01-15T01:05:34;0.30;99.90
12166;DHT22;6146;48.128;11.476;2024-01-15T01:08:00;0.20;99.90
12166;DHT22;6146;48.128;11.476;2024-01-15T01:10:25;0.20;99.90
12166;DHT22;6146;48.128;11.476;2024-01-15T01:12:51;0.20;99.90
12166;DHT22;6146;48.128;11.476;2024-01-15T01:15:16;0.10;99.90
12166;DHT22;6146;48.128;11.476;2024-01-15T01:17:42;-0.10;99.90
12166;DHT22;6146;48.128;11.476;2024-01-15T01:20:08;-0.20;99.90
12166;DHT22;6146;48.128;11.476;2024-01-15T01:22:36;-0.30;99.90
12166;DHT22;6146;48.128;11.476;2024-01-15T01:25:01;-0.40;99.90
12166;DHT22;6146;48.128;11.476;2024-01-15T01:27:27;-0.60;99.90
12166;DHT22;6146;48.128;11.476;2024-01-15T01:29:52;-0.60;99.90
12166;DHT22;6146;48.128;11.476;2024-01-15T01:32:18;-0.80;99.90
12166;DHT22;6146;48.128;11.476;2024-01-15T01:34:44;-0.90;99.90
12166;DHT22;6146;48.128;11.476;2024-01-15T01:37:10;-1.00;99.90
12166;DHT22;6146;48.128;11.476;2024-01-15T01:39:39;-1.00;99.90
12166;DHT22;6146;48.128;11.476;2024-01-15T01:42:04;-1.10;99.90
12166;DHT22;6146;48.128;11.476;2024-01-15T01:44:30;-1.10;99.90
12166;DHT22;6146;48.128;11.476;2024-01-15T01:46:57;-1.10;99.90
12166;DHT22;6146;48.128;11.476;2024-01-15T01:49:24;-1.20;99.90
12166;DHT22;6146;48.128;11.476;2024-01-15T01:51:50;-1.20;99.90
12166;DHT22;6146;48.128;11.476;2024-01-15T01:54:16;-1.30;99.90
12166;DHT22;6146;48.128;11.476;2024-01-15T01:56:42;-1.30;99.90
12166;DHT22;6146;48.128;11.476;2024-01-15T01:59:09;-1.30;99.90
12166;DHT22;6146;48.128;11.476;2024-01-15T02:01:36;-1.30;99.90
12166;DHT22;6146;48.128;11.476;2024-01-15T02:04:03;-1.30;99.90
12166;DHT22;6146;48.128;11.476;2024-01-15T02:06:29;-1.40;99.90
12166;DHT22;6146;48.128;11.476;2024-01-15T02:08:55;-1.40;99.90
12166;DHT22;6146;48.128;11.476;2024-01-15T02:11:21;-1.40;99.90
12166;DHT22;6146;48.128;11.476;2024-01-15T02:13:46;-1.40;99.90
12166;DHT22;6146;48.128;11.476;2024-01-15T02:16:12;-1.40;99.90
12166;DHT22;6146;48.128;11.476;2024-01-15T02:18:42;-1.40;99.90
12166;DHT22;6146;48.128;11.476;2024-01-15T02:21:08;-1.40;99.90
12166;DHT22;6146;48.128;11.476;2024-01-15T02:23:34;-1.40;99.90
12166;DHT22;6146;48.128;11.476;2024-01-15T02:25:59;-1.50;99.90
12166;DHT22;6146;48.128;11.476;2024-01-15T02:28:25;-1.50;99.90
12166;DHT22;6146;48.128;11.476;2024-01-15T02:30:50;-1.50;99.90
12166;DHT22;6146;48.128;11.476;2024-01-15T02:33:16;-1.50;99.90
12166;DHT22;6146;48.128;11.476;2024-01-15T02:35:41;-1.50;99.90
12166;DHT22;6146;48.128;11.476;2024-01-15T02:38:07;-1.50;99.90
12166;DHT22;6146;48.128;11.476;2024-01-15T02:40:33;-1.50;99.90
12166;DHT22;6146;48.128;11.476;2024-01-15T02:42:59;-1.40;99.90
12166;DHT22;6146;48.128;11.476;2024-01-15T02:45:24;-1.40;99.90
12166;DHT22;6146;48.128;11.476;2024-01-15T02:47:50;-1.40;99.90
12166;DHT22;6146;48.128;11.476;2024-01-15T02:50:15;-1.30;99.90
12166;DHT22;6146;48.128;11.476;2024-01-15T02:52:42;0.30;99.90
12166;DHT22;6146;48.128;11.476;2024-01-15T02:55:08;-1.20;99.90
12166;DHT22;6146;48.128;11.476;2024-01-15T02:57:34;-1.20;99.90
12166;DHT22;6146;48.128;11.476;2024-01-15T03:00:00;-1.20;99.90
12166;DHT22;6146;48.128;11.476;2024-01-15T03:02:26;-1.10;99.90
12166;DHT22;6146;48.128;11.476;2024-01-15T03:04:51;-1.20;99.90
12166;DHT22;6146;48.128;11.476;2024-01-15T03:07:17;-1.20;99.90
12166;DHT22;6146;48.128;11.476;2024-01-15T03:09:43;-1.20;99.90
12166;DHT22;6146;48.128;11.476;2024-01-15T03:12:09;-1.20;99.90
12166;DHT22;6146;48.128;11.476;2024-01-15T03:14:35;-1.20;99.90
12166;DHT22;6146;48.128;11.476;2024-01-15T03:17:01;-1.10;99.90
12166;DHT22;6146;48.128;11.476;2024-01-15T03:19:26;-1.20;99.90
12166;DHT22;6146;48.128;11.476;2024-01-15T03:21:52;-1.20;99.90
12166;DHT22;6146;48.128;11.476;2024-01-15T03:24:17;-1.20;99.90
12166;DHT22;6146;48.128;11.476;2024-01-15T03:26:43;-1.20;99.90
12166;DHT22;6146;48.128;11.476;2024-01-15T03:29:08;-1.10;99.90
12166;DHT22;6146;48.128;11.476;2024-01-15T03:31:34;-1.20;99.90
12166;DHT22;6146;48.128;11.476;2024-01-15T03:34:00;-1.20;99.90
12166;DHT22;6146;48.128;11.476;2024-01-15T03:36:25;-1.20;99.90
12166;DHT22;6146;48.128;11.476;2024-01-15T03:38:51;-1.20;99.90
12166;DHT22;6146;48.128;11.476;2024-01-15T03:41:17;-1.30;99.90
12166;DHT22;6146;48.128;11.476;2024-01-15T03:43:42;-1.30;99.90
12166;DHT22;6146;48.128;11.476;2024-01-15T03:46:08;-1.20;99.90
12166;DHT22;6146;48.128;11.476;2024-01-15T03:48:33;-1.20;99.90
12166;DHT22;6146;48.128;11.476;2024-01-15T03:50:59;-1.20;99.90
12166;DHT22;6146;48.128;11.476;2024-01-15T03:53:24;-1.20;99.90
12166;DHT22;6146;48.128;11.476;2024-01-15T03:55:50;-1.20;99.90
12166;DHT22;6146;48.128;11.476;2024-01-15T03:58:16;-1.10;99.90
12166;DHT22;6146;48.128;11.476;2024-01-15T04:00:42;-1.10;99.90
12166;DHT22;6146;48.128;11.476;2024-01-15T04:03:08;-1.20;99.90
12166;DHT22;6146;48.128;11.476;2024-01-15T04:05:33;-1.20;99.90
12166;DHT22;6146;48.128;11.476;2024-01-15T04:07:59;-1.20;99.90
12166;DHT22;6146;48.128;11.476;2024-01-15T04:10:25;-1.10;99.90
12166;DHT22;6146;48.128;11.476;2024-01-15T04:12:50;-1.20;99.90
12166;DHT22;6146;48.128;11.476;2024-01-15T04:15:16;-1.10;99.90
12166;DHT22;6146;48.128;11.476;2024-01-15T04:17:41;-1.20;99.90
12166;DHT22;6146;48.128;11.476;2024-01-15T04:20:07;-1.20;99.90
12166;DHT22;6146;48.128;11.476;2024-01-15T04:22:35;-1.10;99.90
12166;DHT22;6146;48.128;11.476;2024-01-15T04:25:00;-1.10;99.90
12166;DHT22;6146;48.128;11.476;2024-01-15T04:27:26;-1.10;99.90
12166;DHT22;6146;48.128;11.476;2024-01-15T04:29:51;-1.10;99.90
12166;DHT22;6146;48.128;11.476;2024-01-15T04:32:17;-1.10;99.90
12166;DHT22;6146;48.128;11.476;2024-01-15T04:34:42;-1.00;99.90
12166;DHT22;6146;48.128;11.476;2024-01-15T04:37:08;-1.10;99.90
12166;DHT22;6146;48.128;11.476;2024-01-15T04:39:33;-1.10;99.90
12166;DHT22;6146;48.128;11.476;2024-01-15T04:41:59;-1.00;99.90
12166;DHT22;6146;48.128;11.476;2024-01-15T04:44:24;-1.00;99.90
12166;DHT22;6146;48.128;11.476;2024-01-15T04:46:50;-1.00;99.90
12166;DHT22;6146;48.128;11.476;2024-01-15T04:49:16;-1.00;99.90
12166;DHT22;6146;48.128;11.476;2024-01-15T04:51:41;-1.00;99.90
12166;DHT22;6146;48.128;11.476;2024-01-15T04:54:07;-1.00;99.90
12166;DHT22;6146;48.128;11.476;2024-01-15T04:56:32;-1.00;99.90
12166;DHT22;6146;48.128;11.476;2024-01-15T04:58:58;-1.00;99.90
12166;DHT22;6146;48.128;11.476;2024-01-15T05:01:23;-1.10;99.90
12166;DHT22;6146;48.128;11.476;2024-01-15T05:03:49;-1.10;99.90
12166;DHT22;6146;48.128;11.476;2024-01-15T05:06:15;-1.00;99.90
12166;DHT22;6146;48.128;11.476;2024-01-15T05:08:40;-1.00;99.90
12166;DHT22;6146;48.128;11.476;2024-01-15T05:11:06;-1.00;99.90
12166;DHT22;6146;48.128;11.476;2024-01-15T05:13:32;-0.90;99.90
12166;DHT22;6146;48.128;11.476;2024-01-15T05:15:57;-1.00;99.90
12166;DHT22;6146;48.128;11.476;2024-01-15T05:18:23;-1.00;99.90
12166;DHT22;6146;48.128;11.476;2024-01-15T05:20:48;-1.00;99.90
12166;DHT22;6146;48.128;11.476;2024-01-15T05:23:14;-1.00;99.90
12166;DHT22;6146;48.128;11.476;2024-01-15T05:25:40;-1.10;99.90
12166;DHT22;6146;48.128;11.476;2024-01-15T05:28:05;-1.20;99.90
12166;DHT22;6146;48.128;11.476;2024-01-15T05:30:31;-1.20;99.90
12166;DHT22;6146;48.128;11.476;2024-01-15T05:32:57;-1.20;99.90
12166;DHT22;6146;48.128;11.476;2024-01-15T05:35:23;-1.10;99.90
12166;DHT22;6146;48.128;11.476;2024-01-15T05:37:48;-1.10;99.90
12166;DHT22;6146;48.128;11.476;2024-01-15T05:40:14;-1.10;99.90
12166;DHT22;6146;48.128;11.476;2024-01-15T05:42:41;-1.10;99.90
12166;DHT22;6146;48.128;11.476;2024-01-15T05:45:07;-1.20;99.90
12166;DHT22;6146;48.128;11.476;2024-01-15T05:47:33;-1.20;99.90
12166;DHT22;6146;48.128;11.476;2024-01-15T05:50:00;-1.10;99.90
12166;DHT22;6146;48.128;11.476;2024-01-15T05:52:25;-1.10;99.90
12166;DHT22;6146;48.128;11.476;2024-01-15T05:54:51;-1.10;99.90
12166;DHT22;6146;48.128;11.476;2024-01-15T05:57:16;-1.10;99.90
12166;DHT22;6146;48.128;11.476;2024-01-15T05:59:44;-1.10;99.90
12166;DHT22;6146;48.128;11.476;2024-01-15T06:02:09;-1.10;99.90
12166;DHT22;6146;48.128;11.476;2024-01-15T06:04:35;-1.10;99.90
12166;DHT22;6146;48.128;11.476;2024-01-15T06:07:00;-1.10;99.90
12166;DHT22;6146;48.128;11.476;2024-01-15T06:09:26;-1.10;99.90
12166;DHT22;6146;48.128;11.476;2024-01-15T06:11:53;-1.10;99.90
12166;DHT22;6146;48.128;11.476;2024-01-15T06:14:18;-1.10;99.90
12166;DHT22;6146;48.128;11.476;2024-01-15T06:16:44;-1.10;99.90
12166;DHT22;6146;48.128;11.476;2024-01-15T06:19:09;-1.10;99.90
12166;DHT22;6146;48.128;11.476;2024-01-15T06:21:35;-1.10;99.90
12166;DHT22;6146;48.128;11.476;2024-01-15T06:24:01;-1.10;99.90
12166;DHT22;6146;48.128;11.476;2024-01-15T06:26:26;-1.00;99.90
12166;DHT22;6146;48.128;11.476;2024-01-15T06:28:52;-1.10;99.90
12166;DHT22;6146;48.128;11.476;2024-01-15T06:31:17;-1.10;99.90
12166;DHT22;6146;48.128;11.476;2024-01-15T06:33:43;-1.00;99.90
12166;DHT22;6146;48.128;11.476;2024-01-15T06:36:10;-1.00;99.90
12166;DHT22;6146;48.128;11.476;2024-01-15T06:38:36;-1.00;99.90
12166;DHT22;6146;48.128;11.476;2024-01-15T06:41:01;-1.10;99.90
12166;DHT22;6146;48.128;11.476;2024-01-15T06:43:27;-1.10;99.90
12166;DHT22;6146;48.128;11.476;2024-01-15T06:45:52;-1.10;99.90
12166;DHT22;6146;48.128;11.476;2024-01-15T06:48:18;-1.00;99.90
12166;DHT22;6146;48.128;11.476;2024-01-15T06:50:44;-1.10;99.90
12166;DHT22;6146;48.128;11.476;2024-01-15T06:53:10;-1.00;99.90
12166;DHT22;6146;48.128;11.476;2024-01-15T06:55:35;-1.00;99.90
12166;DHT22;6146;48.128;11.476;2024-01-15T06:58:01;-1.00;99.90
12166;DHT22;6146;48.128;11.476;2024-01-15T07:00:26;-1.00;99.90
12166;DHT22;6146;48.128;11.476;2024-01-15T07:02:54;-0.90;99.90
12166;DHT22;6146;48.128;11.476;2024-01-15T07:05:21;-0.90;99.90
12166;DHT22;6146;48.128;11.476;2024-01-15T07:07:46;-0.90;99.90
12166;DHT22;6146;48.128;11.476;2024-01-15T07:10:13;-0.90;99.90
12166;DHT22;6146;48.128;11.476;2024-01-15T07:12:38;-0.90;99.90
12166;DHT22;6146;48.128;11.476;2024-01-15T07:15:04;-0.90;99.90
12166;DHT22;6146;48.128;11.476;2024-01-15T07:17:32;-0.90;99.90
12166;DHT22;6146;48.128;11.476;2024-01-15T07:19:57;-0.90;99.90
12166;DHT22;6146;48.128;11.476;2024-01-15T07:22:23;-0.90;99.90
12166;DHT22;6146;48.128;11.476;2024-01-15T07:24:49;-0.90;99.90
12166;DHT22;6146;48.128;11.476;2024-01-15T07:27:14;-0.90;99.90
12166;DHT22;6146;48.128;11.476;2024-01-15T07:29:40;-0.90;99.90
12166;DHT22;6146;48.128;11.476;2024-01-15T07:32:05;-0.80;99.90
12166;DHT22;6146;48.128;11.476;2024-01-15T07:34:33;-0.80;99.90
12166;DHT22;6146;48.128;11.476;2024-01-15T07:36:58;-0.80;99.90
12166;DHT22;6146;48.128;11.476;2024-01-15T07:39:24;-0.80;99.90
12166;DHT22;6146;48.128;11.476;2024-01-15T07:41:51;-0.80;99.90
12166;DHT22;6146;48.128;11.476;2024-01-15T07:44:16;-0.70;99.90
12166;DHT22;6146;48.128;11.476;2024-01-15T07:46:46;-0.70;99.90
12166;DHT22;6146;48.128;11.476;2024-01-15T07:49:12;-0.60;99.90
12166;DHT22;6146;48.128;11.476;2024-01-15T07:51:38;-0.60;99.90
12166;DHT22;6146;48.128;11.476;2024-01-15T07:54:05;-0.60;99.90
12166;DHT22;6146;48.128;11.476;2024-01-15T07:56:31;-0.60;99.90
12166;DHT22;6146;48.128;11.476;2024-01-15T07:58:57;-0.60;99.90
12166;DHT22;6146;48.128;11.476;2024-01-15T08:01:22;-0.60;99.90
12166;DHT22;6146;48.128;11.476;2024-01-15T08:03:48;-0.60;99.90
12166;DHT22;6146;48.128;11.476;2024-01-15T08:06:13;-0.60;99.90
12166;DHT22;6146;48.128;11.476;2024-01-15T08:08:39;-0.50;99.90
12166;DHT22;6146;48.128;11.476;2024-01-15T08:11:05;-0.50;99.90
12166;DHT22;6146;48.128;11.476;2024-01-15T08:13:30;-0.40;99.90
12166;DHT22;6146;48.128;11.476;2024-01-15T08:15:56;-0.30;99.90
12166;DHT22;6146;48.128;11.476;2024-01-15T08:18:21;-0.30;99.90
12166;DHT22;6146;48.128;11.476;2024-01-15T08:20:47;-0.30;99.90
12166;DHT22;6146;48.128;11.476;2024-01-15T08:23:13;-0.30;99.90
12166;DHT22;6146;48.128;11.476;2024-01-15T08:25:38;-0.30;99.90
12166;DHT22;6146;48.128;11.476;2024-01-15T08:28:04;-0.30;99.90
12166;DHT22;6146;48.128;11.476;2024-01-15T08:30:29;-0.30;99.90
12166;DHT22;6146;48.128;11.476;2024-01-15T08:32:55;-0.30;99.90
12166;DHT22;6146;48.128;11.476;2024-01-15T08:35:21;-0.30;99.90
12166;DHT22;6146;48.128;11.476;2024-01-15T08:37:51;-0.30;99.90
12166;DHT22;6146;48.128;11.476;2024-01-15T08:40:17;-0.30;99.90
12166;DHT22;6146;48.128;11.476;2024-01-15T08:42:43;-0.30;99.90
12166;DHT22;6146;48.128;11.476;2024-01-15T08:45:09;-0.30;99.90
12166;DHT22;6146;48.128;11.476;2024-01-15T08:47:35;-0.20;99.90
12166;DHT22;6146;48.128;11.476;2024-01-15T08:50:01;-0.20;99.90
12166;DHT22;6146;48.128;11.476;2024-01-15T08:52:26;-0.20;99.90
12166;DHT22;6146;48.128;11.476;2024-01-15T08:54:52;-0.20;99.90
12166;DHT22;6146;48.128;11.476;2024-01-15T08:57:17;-0.20;99.90
12166;DHT22;6146;48.128;11.476;2024-01-15T08:59:43;-0.20;99.90
12166;DHT22;6146;48.128;11.476;2024-01-15T09:02:09;-0.20;99.90
12166;DHT22;6146;48.128;11.476;2024-01-15T09:04:34;-0.20;99.90
12166;DHT22;6146;48.128;11.476;2024-01-15T09:07:00;-0.10;99.90
12166;DHT22;6146;48.128;11.476;2024-01-15T09:09:25;-0.10;99.90
12166;DHT22;6146;48.128;11.476;2024-01-15T09:11:51;-0.10;99.90
12166;DHT22;6146;48.128;11.476;2024-01-15T09:14:17;0.10;99.90
12166;DHT22;6146;48.128;11.476;2024-01-15T09:16:43;0.00;99.90
12166;DHT22;6146;48.128;11.476;2024-01-15T09:19:08;2.00;99.90
12166;DHT22;6146;48.128;11.476;2024-01-15T09:21:34;0.10;99.90
12166;DHT22;6146;48.128;11.476;2024-01-15T09:23:59;0.10;99.90
12166;DHT22;6146;48.128;11.476;2024-01-15T09:26:25;0.10;99.90
12166;DHT22;6146;48.128;11.476;2024-01-15T09:28:51;0.20;99.90
12166;DHT22;6146;48.128;11.476;2024-01-15T09:31:16;0.20;99.90
12166;DHT22;6146;48.128;11.476;2024-01-15T09:33:45;0.40;99.90
12166;DHT22;6146;48.128;11.476;2024-01-15T09:36:11;0.40;99.90
12166;DHT22;6146;48.128;11.476;2024-01-15T09:38:36;0.30;99.90
12166;DHT22;6146;48.128;11.476;2024-01-15T09:41:02;0.40;99.90
12166;DHT22;6146;48.128;11.476;2024-01-15T09:43:27;0.40;99.90
12166;DHT22;6146;48.128;11.476;2024-01-15T09:45:53;0.50;99.90
12166;DHT22;6146;48.128;11.476;2024-01-15T09:48:20;0.60;99.90
12166;DHT22;6146;48.128;11.476;2024-01-15T09:50:46;0.60;99.90
12166;DHT22;6146;48.128;11.476;2024-01-15T09:53:12;0.70;99.90
12166;DHT22;6146;48.128;11.476;2024-01-15T09:55:39;0.70;99.90
12166;DHT22;6146;48.128;11.476;2024-01-15T09:58:05;0.70;99.90
12166;DHT22;6146;48.128;11.476;2024-01-15T10:00:30;0.80;99.90
12166;DHT22;6146;48.128;11.476;2024-01-15T10:02:58;0.90;99.90
12166;DHT22;6146;48.128;11.476;2024-01-15T10:05:26;1.00;99.90
12166;DHT22;6146;48.128;11.476;2024-01-15T10:07:53;1.00;99.90
12166;DHT22;6146;48.128;11.476;2024-01-15T10:10:20;1.00;99.90
12166;DHT22;6146;48.128;11.476;2024-01-15T10:12:47;1.00;99.90
12166;DHT22;6146;48.128;11.476;2024-01-15T10:15:12;1.00;99.90
12166;DHT22;6146;48.128;11.476;2024-01-15T10:17:39;1.00;99.90
12166;DHT22;6146;48.128;11.476;2024-01-15T10:20:11;0.90;99.90
12166;DHT22;6146;48.128;11.476;2024-01-15T10:22:43;0.90;99.90
12166;DHT22;6146;48.128;11.476;2024-01-15T10:25:13;1.10;99.90
12166;DHT22;6146;48.128;11.476;2024-01-15T10:27:42;1.10;99.90
12166;DHT22;6146;48.128;11.476;2024-01-15T10:30:11;1.10;99.90
12166;DHT22;6146;48.128;11.476;2024-01-15T10:32:39;1.00;99.90
12166;DHT22;6146;48.128;11.476;2024-01-15T10:35:07;1.10;99.90
12166;DHT22;6146;48.128;11.476;2024-01-15T10:37:34;1.10;99.90
12166;DHT22;6146;48.128;11.476;2024-01-15T10:40:02;1.10;99.90
12166;DHT22;6146;48.128;11.476;2024-01-15T10:42:30;1.10;99.90
12166;DHT22;6146;48.128;11.476;2024-01-15T10:44:56;0.20;99.90
12166;DHT22;6146;48.128;11.476;2024-01-15T10:47:22;1.20;99.90
12166;DHT22;6146;48.128;11.476;2024-01-15T10:49:48;1.10;99.90
12166;DHT22;6146;48.128;11.476;2024-01-15T10:52:15;1.30;99.90
12166;DHT22;6146;48.128;11.476;2024-01-15T10:54:41;1.40;99.90
12166;DHT22;6146;48.128;11.476;2024-01-15T10:57:08;1.60;99.90
12166;DHT22;6146;48.128;11.476;2024-01-15T10:59:34;1.70;99.90
12166;DHT22;6146;48.128;11.476;2024-01-15T11:02:01;1.80;99.90
12166;DHT22;6146;48.128;11.476;2024-01-15T11:04:27;3.60;99.90
12166;DHT22;6146;48.128;11.476;2024-01-15T11:06:54;2.10;99.90
12166;DHT22;6146;48.128;11.476;2024-01-15T11:09:20;2.30;99.90
12166;DHT22;6146;48.128;11.476;2024-01-15T11:11:47;2.40;99.90
12166;DHT22;6146;48.128;11.476;2024-01-15T11:14:41;2.60;99.90
12166;DHT22;6146;48.128;11.476;2024-01-15T11:17:10;3.00;99.90
12166;DHT22;6146;48.128;11.476;2024-01-15T11:24:55;2.60;99.90
12166;DHT22;6146;48.128;11.476;2024-01-15T11:27:43;2.40;99.90
12166;DHT22;6146;48.128;11.476;2024-01-15T11:30:11;2.50;99.90
12166;DHT22;6146;48.128;11.476;2024-01-15T11:32:37;2.40;99.90
12166;DHT22;6146;48.128;11.476;2024-01-15T11:35:07;2.30;99.90
12166;DHT22;6146;48.128;11.476;2024-01-15T11:42:59;1.80;99.90
12166;DHT22;6146;48.128;11.476;2024-01-15T11:45:25;1.70;99.90
12166;DHT22;6146;48.128;11.476;2024-01-15T11:50:49;1.30;99.90
12166;DHT22;6146;48.128;11.476;2024-01-15T11:53:43;1.90;99.90
12166;DHT22;6146;48.128;11.476;2024-01-15T11:56:14;2.10;99.90
12166;DHT22;6146;48.128;11.476;2024-01-15T11:58:41;1.80;99.90
12166;DHT22;6146;48.128;11.476;2024-01-15T12:01:07;1.60;99.90
12166;DHT22;6146;48.128;11.476;2024-01-15T12:03:32;1.60;99.90
12166;DHT22;6146;48.128;11.476;2024-01-15T12:06:01;1.50;99.90
12166;DHT22;6146;48.128;11.476;2024-01-15T12:08:27;1.30;99.90
12166;DHT22;6146;48.128;11.476;2024-01-15T12:10:53;1.30;99.90
12166;DHT22;6146;48.128;11.476;2024-01-15T12:13:20;1.30;99.90
12166;DHT22;6146;48.128;11.476;2024-01-15T12:15:47;1.20;99.90
12166;DHT22;6146;48.128;11.476;2024-01-15T12:18:16;1.30;99.90
12166;DHT22;6146;48.128;11.476;2024-01-15T12:20:42;2.10;99.90
12166;DHT22;6146;48.128;11.476;2024-01-15T12:23:09;4.30;99.90
12166;DHT22;6146;48.128;11.476;2024-01-15T12:25:35;6.60;99.90
12166;DHT22;6146;48.128;11.476;2024-01-15T12:28:01;9.30;99.90
12166;DHT22;6146;48.128;11.476;2024-01-15T12:30:27;10.60;96.60
12166;DHT22;6146;48.128;11.476;2024-01-15T12:32:53;11.30;93.60
12166;DHT22;6146;48.128;11.476;2024-01-15T12:35:19;10.60;92.50
12166;DHT22;6146;48.128;11.476;2024-01-15T12:37:45;10.20;93.50
12166;DHT22;6146;48.128;11.476;2024-01-15T12:40:13;10.50;92.70
12166;DHT22;6146;48.128;11.476;2024-01-15T12:42:43;10.40;91.80
12166;DHT22;6146;48.128;11.476;2024-01-15T12:45:10;9.50;93.30
12166;DHT22;6146;48.128;11.476;2024-01-15T12:47:37;9.40;94.00
12166;DHT22;6146;48.128;11.476;2024-01-15T12:50:05;9.90;93.50
12166;DHT22;6146;48.128;11.476;2024-01-15T12:52:32;9.70;93.30
12166;DHT22;6146;48.128;11.476;2024-01-15T12:54:57;9.90;93.00
12166;DHT22;6146;48.128;11.476;2024-01-15T12:57:23;9.40;93.70
12166;DHT22;6146;48.128;11.476;2024-01-15T12:59:49;9.30;94.30
12166;DHT22;6146;48.128;11.476;2024-01-15T13:02:15;9.70;93.90
12166;DHT22;6146;48.128;11.476;2024-01-15T13:04:42;10.50;92.10
12166;DHT22;6146;48.128;11.476;2024-01-15T13:07:08;10.90;91.60
12166;DHT22;6146;48.128;11.476;2024-01-15T13:09:34;11.00;91.40
12166;DHT22;6146;48.128;11.476;2024-01-15T13:12:00;11.20;90.70
12166;DHT22;6146;48.128;11.476;2024-01-15T13:14:26;11.20;91.10
12166;DHT22;6146;48.128;11.476;2024-01-15T13:16:52;10.30;90.60
12166;DHT22;6146;48.128;11.476;2024-01-15T13:19:19;9.40;92.80
12166;DHT22;6146;48.128;11.476;2024-01-15T13:21:45;8.20;94.40
12166;DHT22;6146;48.128;11.476;2024-01-15T13:24:10;7.50;96.70
12166;DHT22;6146;48.128;11.476;2024-01-15T13:26:36;6.50;98.10
12166;DHT22;6146;48.128;11.476;2024-01-15T13:29:05;5.50;99.90
12166;DHT22;6146;48.128;11.476;2024-01-15T13:31:34;5.00;99.90
12166;DHT22;6146;48.128;11.476;2024-01-15T13:34:00;4.20;99.90
12166;DHT22;6146;48.128;11.476;2024-01-15T13:36:26;3.90;99.90
12166;DHT22;6146;48.128;11.476;2024-01-15T13:38:52;3.70;99.90
12166;DHT22;6146;48.128;11.476;2024-01-15T13:41:19;3.30;99.90
12166;DHT22;6146;48.128;11.476;2024-01-15T13:43:49;3.20;99.90
12166;DHT22;6146;48.128;11.476;2024-01-15T13:46:16;3.20;99.90
12166;DHT22;6146;48.128;11.476;2024-01-15T13:48:42;3.10;99.90
12166;DHT22;6146;48.128;11.476;2024-01-15T13:51:08;3.00;99.90
12166;DHT22;6146;48.128;11.476;2024-01-15T13:53:34;2.80;99.90
12166;DHT22;6146;48.128;11.476;2024-01-15T13:55:59;2.70;99.90
12166;DHT22;6146;48.128;11.476;2024-01-15T13:58:25;2.60;99.90
12166;DHT22;6146;48.128;11.476;2024-01-15T14:00:51;2.50;99.90
12166;DHT22;6146;48.128;11.476;2024-01-15T14:03:17;2.40;99.90
12166;DHT22;6146;48.128;11.476;2024-01-15T14:05:44;2.20;99.90
12166;DHT22;6146;48.128;11.476;2024-01-15T14:08:09;2.10;99.90
12166;DHT22;6146;48.128;11.476;2024-01-15T14:10:35;2.00;99.90
12166;DHT22;6146;48.128;11.476;2024-01-15T14:13:00;2.10;99.90
12166;DHT22;6146;48.128;11.476;2024-01-15T14:15:26;2.00;99.90
12166;DHT22;6146;48.128;11.476;2024-01-15T14:17:52;1.90;99.90
12166;DHT22;6146;48.128;11.476;2024-01-15T14:20:18;1.80;99.90
12166;DHT22;6146;48.128;11.476;2024-01-15T14:22:43;1.70;99.90
12166;DHT22;6146;48.128;11.476;2024-01-15T14:25:09;1.60;99.90
12166;DHT22;6146;48.128;11.476;2024-01-15T14:27:35;1.50;99.90
12166;DHT22;6146;48.128;11.476;2024-01-15T14:30:02;1.40;99.90
12166;DHT22;6146;48.128;11.476;2024-01-15T14:32:28;1.40;99.90
12166;DHT22;6146;48.128;11.476;2024-01-15T14:34:53;1.40;99.90
12166;DHT22;6146;48.128;11.476;2024-01-15T14:37:19;1.20;99.90
12166;DHT22;6146;48.128;11.476;2024-01-15T14:39:46;1.20;99.90
12166;DHT22;6146;48.128;11.476;2024-01-15T14:42:11;1.10;99.90
12166;DHT22;6146;48.128;11.476;2024-01-15T14:44:37;1.10;99.90
12166;DHT22;6146;48.128;11.476;2024-01-15T14:47:06;-0.90;99.90
12166;DHT22;6146;48.128;11.476;2024-01-15T14:49:32;1.00;99.90
12166;DHT22;6146;48.128;11.476;2024-01-15T14:51:57;1.00;99.90
12166;DHT22;6146;48.128;11.476;2024-01-15T14:54:23;1.00;99.90
12166;DHT22;6146;48.128;11.476;2024-01-15T14:56:48;1.00;99.90
12166;DHT22;6146;48.128;11.476;2024-01-15T14:59:14;1.00;99.90
12166;DHT22;6146;48.128;11.476;2024-01-15T15:01:39;0.90;99.90
12166;DHT22;6146;48.128;11.476;2024-01-15T15:04:05;1.00;99.90
12166;DHT22;6146;48.128;11.476;2024-01-15T15:06:31;1.00;99.90
12166;DHT22;6146;48.128;11.476;2024-01-15T15:08:56;0.90;99.90
12166;DHT22;6146;48.128;11.476;2024-01-15T15:11:25;0.90;99.90
12166;DHT22;6146;48.128;11.476;2024-01-15T15:13:51;0.90;99.90
12166;DHT22;6146;48.128;11.476;2024-01-15T15:16:17;0.90;99.90
12166;DHT22;6146;48.128;11.476;2024-01-15T15:18:43;0.90;99.90
12166;DHT22;6146;48.128;11.476;2024-01-15T15:21:09;0.90;99.90
12166;DHT22;6146;48.128;11.476;2024-01-15T15:23:35;0.90;99.90
12166;DHT22;6146;48.128;11.476;2024-01-15T15:26:01;0.90;99.90
12166;DHT22;6146;48.128;11.476;2024-01-15T15:28:26;0.80;99.90
12166;DHT22;6146;48.128;11.476;2024-01-15T15:30:52;0.80;99.90
12166;DHT22;6146;48.128;11.476;2024-01-15T15:33:17;0.80;99.90
12166;DHT22;6146;48.128;11.476;2024-01-15T15:35:44;0.80;99.90
12166;DHT22;6146;48.128;11.476;2024-01-15T15:38:09;0.80;99.90
12166;DHT22;6146;48.128;11.476;2024-01-15T15:40:35;0.80;99.90
12166;DHT22;6146;48.128;11.476;2024-01-15T15:43:01;0.80;99.90
12166;DHT22;6146;48.128;11.476;2024-01-15T15:45:26;0.80;99.90